Time;durP1;ratioP1;P1;durP2;ratioP2;P2;SDS_P1;SDS_P2;PMS_P1;PMS_P2;Temp;Humidity;BMP_temperature;BMP_pressure;BME280_temperature;BME280_humidity;BME280_pressure;Samples;Min_cycle;Max_cycle;Signal;HPM_P1;HPM_P2
2023/10/01 00:01:44;;;;;;;16.90;8.23;;;;;;;17.54;100.00;97175.09;5030789;28;20033;-76
2023/10/01 00:04:11;;;;;;;18.63;8.27;;;;;;;17.27;100.00;97167.66;5027775;28;20070;-77
2023/10/01 00:06:38;;;;;;;18.10;8.73;;;;;;;17.07;100.00;97169.97;5029252;28;20021;-76
2023/10/01 00:09:09;;;;;;;21.20;9.60;;;;;;;17.06;100.00;97178.97;5039597;28;20033;-77
2023/10/01 00:11:38;;;;;;;16.10;7.67;;;;;;;17.49;100.00;97173.97;5039503;28;20029;-76
2023/10/01 00:14:08;;;;;;;17.73;8.30;;;;;;;17.54;100.00;97167.13;5052220;28;20077;-76
2023/10/01 00:16:37;;;;;;;16.77;7.53;;;;;;;17.00;100.00;97177.00;5011261;28;20400;-76
2023/10/01 00:19:07;;;;;;;14.27;8.00;;;;;;;16.77;100.00;97176.97;5033879;28;20037;-77
2023/10/01 00:21:33;;;;;;;17.50;8.57;;;;;;;16.69;100.00;97178.66;5026481;28;20033;-76
2023/10/01 00:23:59;;;;;;;16.77;8.40;;;;;;;16.83;100.00;97173.63;5034826;28;20032;-76
2023/10/01 00:26:25;;;;;;;18.23;8.77;;;;;;;16.69;100.00;97183.97;5015875;28;20025;-76
2023/10/01 00:28:51;;;;;;;17.23;7.43;;;;;;;16.72;100.00;97182.78;5024342;28;20100;-76
2023/10/01 00:31:17;;;;;;;17.67;9.10;;;;;;;16.58;100.00;97180.88;5009530;28;20125;-76
2023/10/01 00:33:45;;;;;;;15.80;8.37;;;;;;;16.52;100.00;97173.59;5035757;28;20081;-76
2023/10/01 00:36:10;;;;;;;17.67;8.70;;;;;;;16.59;100.00;97170.06;5032462;28;20021;-76
2023/10/01 00:38:36;;;;;;;20.13;8.97;;;;;;;16.53;100.00;97160.13;5015579;28;20014;-76
2023/10/01 00:41:03;;;;;;;17.67;9.37;;;;;;;16.52;100.00;97155.03;5017326;28;20022;-76
2023/10/01 00:43:32;;;;;;;19.73;9.73;;;;;;;16.44;100.00;97158.56;5011068;28;20502;-76
2023/10/01 00:45:59;;;;;;;18.17;9.40;;;;;;;16.69;100.00;97152.09;5012619;28;20072;-76
2023/10/01 00:48:25;;;;;;;17.30;9.63;;;;;;;16.46;100.00;97146.75;5003816;28;20029;-76
2023/10/01 00:50:55;;;;;;;19.93;9.53;;;;;;;16.60;100.00;97149.66;5010474;28;20021;-76
2023/10/01 00:53:24;;;;;;;21.13;10.43;;;;;;;16.39;100.00;97155.56;5020550;28;20032;-76
2023/10/01 00:55:51;;;;;;;16.83;9.73;;;;;;;16.50;100.00;97150.72;5021835;28;20025;-76
2023/10/01 00:58:18;;;;;;;14.43;8.73;;;;;;;16.76;100.00;97152.25;5010126;28;20752;-76
2023/10/01 01:00:48;;;;;;;18.67;9.43;;;;;;;16.86;100.00;97147.53;5011739;28;20036;-76
2023/10/01 01:03:22;;;;;;;17.00;9.10;;;;;;;16.76;100.00;97157.56;5017619;28;20018;-76
2023/10/01 01:06:12;;;;;;;;;;;;;;;16.50;100.00;97156.03;5038139;28;20447;-76
2023/10/01 01:08:49;;;;;;;20.13;8.73;;;;;;;16.65;100.00;97153.44;5020710;28;19996;-76
2023/10/01 01:11:15;;;;;;;19.00;9.93;;;;;;;16.57;100.00;97147.38;5025511;28;20026;-76
2023/10/01 01:13:43;;;;;;;18.03;9.30;;;;;;;16.68;100.00;97150.44;5029624;28;20097;-76
2023/10/01 01:16:10;;;;;;;20.23;10.30;;;;;;;16.65;100.00;97150.78;5038658;28;20031;-76
2023/10/01 01:18:36;;;;;;;17.80;9.70;;;;;;;16.60;100.00;97154.97;5039728;28;20075;-76
2023/10/01 01:21:09;;;;;;;18.30;10.50;;;;;;;16.47;100.00;97163.50;5039422;28;20037;-76
2023/10/01 01:23:35;;;;;;;17.80;11.13;;;;;;;16.57;100.00;97163.31;5039780;28;20025;-76
2023/10/01 01:26:02;;;;;;;19.57;10.47;;;;;;;16.68;100.00;97162.91;5039062;28;20091;-76
2023/10/01 01:28:31;;;;;;;19.57;10.57;;;;;;;16.80;100.00;97158.88;5017129;28;20067;-76
2023/10/01 01:31:00;;;;;;;18.93;11.53;;;;;;;16.42;100.00;97155.22;5017855;28;20079;-76
2023/10/01 01:33:32;;;;;;;21.33;12.03;;;;;;;16.57;100.00;97148.19;5015192;28;20108;-76
2023/10/01 01:36:06;;;;;;;18.33;11.33;;;;;;;16.65;100.00;97160.59;5032166;28;20449;-76
2023/10/01 01:38:32;;;;;;;18.03;10.53;;;;;;;16.44;100.00;97158.56;5033464;28;20028;-76
2023/10/01 01:41:00;;;;;;;16.43;10.60;;;;;;;16.43;100.00;97162.19;5013487;28;20029;-76
2023/10/01 01:43:30;;;;;;;19.20;10.27;;;;;;;16.02;100.00;97160.50;5028079;28;20047;-76
2023/10/01 01:46:00;;;;;;;18.70;10.50;;;;;;;15.98;100.00;97161.03;5031996;28;20033;-76
2023/10/01 01:48:30;;;;;;;19.77;9.83;;;;;;;15.79;100.00;97157.78;5031497;28;20316;-76
2023/10/01 01:50:58;;;;;;;18.90;9.47;;;;;;;15.93;100.00;97160.75;5012825;28;20036;-76
2023/10/01 01:53:34;;;;;;;20.70;11.63;;;;;;;15.99;100.00;97163.50;5011569;28;20037;-76
2023/10/01 01:56:04;;;;;;;18.53;9.63;;;;;;;15.89;100.00;97154.91;5013697;28;20106;-76
2023/10/01 01:58:32;;;;;;;20.07;10.63;;;;;;;15.87;100.00;97154.28;5028707;28;20033;-76
2023/10/01 02:01:01;;;;;;;15.10;9.03;;;;;;;15.59;100.00;97155.63;5015940;28;20044;-76
2023/10/01 02:03:27;;;;;;;17.70;9.03;;;;;;;15.23;100.00;97153.34;5016399;28;20025;-76
2023/10/01 02:05:53;;;;;;;17.47;8.20;;;;;;;15.43;100.00;97148.53;5016257;28;20021;-76
2023/10/01 02:08:33;;;;;;;16.47;8.10;;;;;;;15.37;100.00;97151.84;5015357;28;20033;-76
2023/10/01 02:10:59;;;;;;;18.73;7.30;;;;;;;15.57;100.00;97147.84;5029295;28;20021;-76
2023/10/01 02:13:27;;;;;;;14.83;7.17;;;;;;;15.58;100.00;97152.13;5012210;28;20036;-76
2023/10/01 02:15:53;;;;;;;16.33;7.00;;;;;;;15.92;100.00;97151.09;5028802;28;20460;-76
2023/10/01 02:18:20;;;;;;;18.13;7.47;;;;;;;16.01;100.00;97144.78;5013287;28;20563;-76
2023/10/01 02:20:55;;;;;;;15.70;6.97;;;;;;;15.86;100.00;97144.69;5032545;28;20071;-76
2023/10/01 02:23:27;;;;;;;18.57;7.70;;;;;;;15.80;100.00;97137.38;5013804;28;20044;-76
2023/10/01 02:25:53;;;;;;;15.87;7.90;;;;;;;15.81;100.00;97135.56;5029594;28;20060;-76
2023/10/01 02:28:18;;;;;;;16.97;7.80;;;;;;;15.78;100.00;97132.25;5015641;28;20026;-76
2023/10/01 02:30:44;;;;;;;19.07;9.00;;;;;;;15.81;100.00;97133.72;5032329;28;20449;-76
2023/10/01 02:33:20;;;;;;;16.13;8.07;;;;;;;15.85;100.00;97132.38;5011947;28;20080;-76
2023/10/01 02:35:55;;;;;;;16.67;8.10;;;;;;;15.88;100.00;97132.06;5026269;28;20029;-76
2023/10/01 02:38:39;;;;;;;17.20;8.13;;;;;;;15.88;100.00;97131.22;5029416;28;20446;-76
2023/10/01 02:41:08;;;;;;;17.67;7.77;;;;;;;15.92;100.00;97127.22;5030870;28;20029;-76
2023/10/01 02:43:35;;;;;;;16.73;7.07;;;;;;;15.35;100.00;97128.13;5011969;28;20404;-76
2023/10/01 02:46:11;;;;;;;17.13;7.87;;;;;;;15.46;100.00;97137.56;5026767;28;20021;-76
2023/10/01 02:48:40;;;;;;;19.37;7.50;;;;;;;15.36;100.00;97131.63;5015352;28;20490;-76
2023/10/01 02:51:32;;;;;;;15.03;7.13;;;;;;;15.83;100.00;97129.09;5019035;28;20044;-76
2023/10/01 02:54:04;;;;;;;20.33;7.30;;;;;;;15.81;100.00;97119.66;5035079;28;20029;-76
2023/10/01 02:56:37;;;;;;;17.10;7.07;;;;;;;15.68;100.00;97133.44;5028426;28;20096;-76
2023/10/01 02:59:13;;;;;;;11.03;5.53;;;;;;;15.66;100.00;97136.25;5016979;28;20421;-76
2023/10/01 03:01:47;;;;;;;17.87;6.70;;;;;;;15.51;100.00;97137.91;5030913;28;20029;-76
2023/10/01 03:04:16;;;;;;;14.60;6.97;;;;;;;15.86;100.00;97127.91;5015547;28;20016;-76
2023/10/01 03:06:47;;;;;;;19.50;7.63;;;;;;;15.96;100.00;97129.38;5030287;28;20357;-76
2023/10/01 03:09:22;;;;;;;17.87;8.40;;;;;;;15.99;100.00;97129.03;5033323;28;20677;-76
2023/10/01 03:12:23;;;;;;;20.10;7.90;;;;;;;15.86;100.00;97130.56;5036363;28;20021;-76
2023/10/01 03:17:55;;;;;;;15.77;8.40;;;;;;;15.83;100.00;97130.91;5029085;28;20026;-76
2023/10/01 03:23:11;;;;;;;17.80;8.20;;;;;;;15.49;100.00;97134.59;5029563;28;20504;-76
2023/10/01 03:25:42;;;;;;;17.20;8.00;;;;;;;15.68;100.00;97118.34;5031636;28;20033;-76
2023/10/01 03:28:25;;;;;;;15.30;7.83;;;;;;;15.43;100.00;97119.38;5025008;28;20025;-76
2023/10/01 03:31:06;;;;;;;19.40;8.40;;;;;;;15.53;100.00;97120.03;5032655;28;20517;-76
2023/10/01 03:33:39;;;;;;;15.60;8.00;;;;;;;15.54;100.00;97119.00;5035418;28;20029;-76
2023/10/01 03:36:12;;;;;;;;;;;;;;;15.22;100.00;97112.75;5011348;28;20476;-76
2023/10/01 03:38:47;;;;;;;19.07;8.23;;;;;;;15.30;100.00;97106.63;5013144;28;19909;-76
2023/10/01 03:41:21;;;;;;;15.23;7.30;;;;;;;15.33;100.00;97101.00;5037282;28;20037;-76
2023/10/01 03:43:50;;;;;;;16.73;8.00;;;;;;;15.38;100.00;97109.25;5007808;28;20501;-76
2023/10/01 03:54:51;;;;;;;16.37;7.50;;;;;;;15.18;100.00;97108.78;5036561;28;20026;-76
2023/10/01 03:57:11;;;;;;;17.53;8.73;;;;;;;15.34;100.00;97105.28;5021838;28;20048;-76
2023/10/01 03:59:40;;;;;;;17.13;7.90;;;;;;;15.35;100.00;97111.41;5018389;28;20017;-76
2023/10/01 04:02:27;;;;;;;15.90;7.50;;;;;;;15.37;100.00;97107.59;5031040;28;20026;-76
2023/10/01 04:04:57;;;;;;;18.77;7.87;;;;;;;15.43;100.00;97106.13;5032311;28;20033;-76
2023/10/01 04:07:26;;;;;;;20.03;9.30;;;;;;;15.41;100.00;97097.50;5026580;28;20534;-76
2023/10/01 04:09:55;;;;;;;16.57;8.17;;;;;;;15.21;100.00;97099.69;5039717;28;20502;-76
2023/10/01 04:12:28;;;;;;;14.83;8.10;;;;;;;15.38;100.00;97092.53;5041115;28;20070;-76
2023/10/01 04:15:01;;;;;;;15.10;8.33;;;;;;;15.23;100.00;97093.22;5024950;28;20021;-76
2023/10/01 04:17:28;;;;;;;11.00;5.70;;;;;;;15.14;100.00;97090.75;5021050;28;20657;-76
2023/10/01 04:19:57;;;;;;;15.83;7.13;;;;;;;15.24;100.00;97086.09;5007026;28;20041;-76
2023/10/01 04:22:25;;;;;;;14.90;6.97;;;;;;;15.22;100.00;97082.78;5029703;28;20436;-77
2023/10/01 04:25:01;;;;;;;19.13;7.57;;;;;;;15.26;100.00;97086.75;5040603;28;20375;-76
2023/10/01 04:27:34;;;;;;;18.67;8.60;;;;;;;15.43;100.00;97090.22;5025669;28;20013;-77
2023/10/01 04:30:00;;;;;;;;;;;;;;;15.49;100.00;97090.38;5029755;28;20025;-76
2023/10/01 04:32:27;;;;;;;17.60;7.10;;;;;;;15.63;100.00;97088.03;5038764;28;20025;-76
2023/10/01 04:35:00;;;;;;;15.70;7.63;;;;;;;15.97;100.00;97096.53;5030317;28;20022;-76
2023/10/01 04:37:37;;;;;;;10.18;5.57;;;;;;;16.00;100.00;97095.38;5029260;28;20108;-76
2023/10/01 04:40:06;;;;;;;17.17;7.93;;;;;;;16.02;100.00;97093.38;5031939;28;20364;-76
2023/10/01 04:42:37;;;;;;;15.80;7.60;;;;;;;15.76;100.00;97091.81;5030591;28;20044;-77
2023/10/01 04:45:22;;;;;;;16.43;7.63;;;;;;;15.76;100.00;97083.00;5024213;28;20055;-77
2023/10/01 04:47:55;;;;;;;21.40;8.67;;;;;;;16.12;100.00;97088.69;5001685;28;20028;-76
2023/10/01 04:50:27;;;;;;;15.18;6.95;;;;;;;16.04;100.00;97094.03;5052341;28;20024;-76
2023/10/01 04:52:58;;;;;;;18.03;7.77;;;;;;;16.01;100.00;97094.38;5028789;28;20399;-76
2023/10/01 04:55:26;;;;;;;15.80;8.23;;;;;;;15.85;100.00;97094.44;5031656;28;20013;-76
2023/10/01 04:57:52;;;;;;;13.47;7.57;;;;;;;15.93;100.00;97084.63;5014683;28;20391;-76
2023/10/01 05:00:21;;;;;;;16.13;7.40;;;;;;;15.83;100.00;97086.66;5018670;28;20021;-76
2023/10/01 05:02:49;;;;;;;16.60;8.10;;;;;;;15.64;100.00;97087.00;5028461;28;20052;-76
2023/10/01 05:05:25;;;;;;;16.63;6.83;;;;;;;15.08;100.00;97085.09;5039364;28;20025;-77
2023/10/01 05:07:59;;;;;;;19.20;8.20;;;;;;;14.88;100.00;97081.13;5037797;28;21186;-76
2023/10/01 05:10:29;;;;;;;18.33;7.47;;;;;;;15.01;100.00;97070.03;5040802;28;20475;-77
2023/10/01 05:12:58;;;;;;;18.33;8.13;;;;;;;15.29;100.00;97067.84;5014881;28;20076;-76
2023/10/01 05:15:35;;;;;;;13.97;7.10;;;;;;;15.32;100.00;97060.41;5021900;28;20026;-77
2023/10/01 05:18:04;;;;;;;15.13;7.30;;;;;;;15.49;100.00;97063.88;5026973;28;20018;-76
2023/10/01 05:20:31;;;;;;;15.70;7.47;;;;;;;15.73;100.00;97081.56;5031251;28;20495;-77
2023/10/01 05:23:02;;;;;;;15.60;7.10;;;;;;;15.71;100.00;97080.88;5031220;28;20514;-76
2023/10/01 05:25:31;;;;;;;18.20;8.20;;;;;;;15.41;100.00;97095.66;5022726;28;20034;-76
2023/10/01 05:27:59;;;;;;;14.73;8.20;;;;;;;15.56;100.00;97098.47;5032251;28;20029;-75
2023/10/01 05:30:42;;;;;;;16.40;7.87;;;;;;;15.35;100.00;97100.81;5034573;28;20559;-75
2023/10/01 05:33:11;;;;;;;13.57;7.55;;;;;;;15.46;100.00;97096.00;5012084;28;20029;-75
2023/10/01 05:35:44;;;;;;;15.73;8.37;;;;;;;15.51;100.00;97098.13;5013998;28;20037;-77
2023/10/01 05:38:11;;;;;;;16.10;8.15;;;;;;;15.80;100.00;97102.91;5010666;28;20025;-77
2023/10/01 05:40:40;;;;;;;13.13;7.60;;;;;;;15.71;100.00;97114.53;5015595;28;20037;-76
2023/10/01 05:43:14;;;;;;;15.87;8.37;;;;;;;15.87;100.00;97108.38;5027450;28;20025;-76
2023/10/01 05:45:44;;;;;;;15.03;7.63;;;;;;;15.95;100.00;97110.97;5012439;28;20119;-76
2023/10/01 05:48:11;;;;;;;17.87;7.73;;;;;;;16.29;100.00;97112.50;5026056;28;20029;-76
2023/10/01 05:50:41;;;;;;;18.37;8.50;;;;;;;16.30;100.00;97119.44;5035140;28;20026;-76
2023/10/01 05:53:09;;;;;;;14.80;8.07;;;;;;;16.87;100.00;97130.59;5039761;28;20552;-76
2023/10/01 05:55:37;;;;;;;14.90;7.73;;;;;;;17.03;100.00;97134.97;5016602;28;20084;-76
2023/10/01 05:58:13;;;;;;;15.47;7.97;;;;;;;17.24;100.00;97129.00;5016365;28;20029;-76
2023/10/01 06:00:56;;;;;;;15.13;7.63;;;;;;;17.44;100.00;97140.78;5021887;28;20435;-76
2023/10/01 06:03:25;;;;;;;17.17;8.52;;;;;;;17.66;100.00;97144.38;5030803;28;20033;-76
2023/10/01 06:05:58;;;;;;;15.70;8.17;;;;;;;17.67;100.00;97146.06;5041328;28;20033;-76
2023/10/01 06:08:44;;;;;;;15.57;8.75;;;;;;;17.74;100.00;97139.97;5030035;28;20017;-76
2023/10/01 06:11:13;;;;;;;15.03;7.67;;;;;;;18.03;100.00;97150.69;5034330;28;20569;-76
2023/10/01 06:13:53;;;;;;;13.80;6.90;;;;;;;18.68;100.00;97143.72;5029296;28;20032;-76
2023/10/01 06:16:23;;;;;;;16.40;8.70;;;;;;;18.71;100.00;97148.69;5024476;28;20040;-76
2023/10/01 06:18:52;;;;;;;12.77;7.10;;;;;;;18.81;100.00;97141.25;5049415;28;20483;-76
2023/10/01 06:21:25;;;;;;;16.27;8.63;;;;;;;18.69;100.00;97147.22;5026271;28;20021;-77
2023/10/01 06:23:52;;;;;;;14.63;7.60;;;;;;;18.81;100.00;97151.03;5009610;28;20022;-77
2023/10/01 06:26:37;;;;;;;14.30;7.20;;;;;;;19.40;100.00;97148.13;5041600;28;20363;-77
2023/10/01 06:29:07;;;;;;;15.07;7.83;;;;;;;19.14;100.00;97147.91;5013976;28;20045;-77
2023/10/01 06:31:52;;;;;;;14.87;7.47;;;;;;;19.62;100.00;97153.47;5041006;28;20480;-77
2023/10/01 06:34:21;;;;;;;14.67;7.33;;;;;;;19.72;100.00;97141.44;5035018;28;20025;-77
2023/10/01 06:36:59;;;;;;;14.57;7.67;;;;;;;19.87;100.00;97144.00;5034613;28;20033;-77
2023/10/01 06:39:30;;;;;;;17.00;6.97;;;;;;;19.70;100.00;97145.31;5033544;28;20025;-77
2023/10/01 06:44:48;;;;;;;13.67;7.50;;;;;;;20.27;100.00;97149.56;5035621;28;20036;-77
2023/10/01 06:47:17;;;;;;;16.37;7.70;;;;;;;21.29;96.57;97137.13;5042706;28;20025;-77
2023/10/01 06:52:29;;;;;;;13.33;6.17;;;;;;;21.42;93.22;97142.53;5033039;28;20111;-77
2023/10/01 06:54:57;;;;;;;16.87;7.20;;;;;;;21.63;95.18;97146.88;5049482;28;20138;-77
2023/10/01 06:57:27;;;;;;;13.95;7.10;;;;;;;21.39;96.36;97149.13;5035545;28;20033;-78
2023/10/01 06:59:56;;;;;;;16.80;7.85;;;;;;;22.15;92.45;97146.97;5040743;28;20037;-77
2023/10/01 07:02:23;;;;;;;14.82;7.22;;;;;;;21.92;94.72;97150.94;5029231;28;20021;-77
2023/10/01 07:04:56;;;;;;;14.93;7.28;;;;;;;22.66;92.83;97155.06;5034487;28;20036;-77
2023/10/01 07:07:23;;;;;;;16.30;9.15;;;;;;;23.07;86.54;97145.78;5017016;28;20093;-78
2023/10/01 07:09:49;;;;;;;20.60;8.40;;;;;;;22.67;90.10;97148.69;5039156;28;20368;-78
2023/10/01 07:12:17;;;;;;;18.77;7.97;;;;;;;23.43;82.83;97152.38;5014781;28;20036;-77
2023/10/01 07:14:43;;;;;;;16.23;7.68;;;;;;;23.36;83.58;97159.66;5028243;28;20040;-77
2023/10/01 07:17:14;;;;;;;12.30;6.93;;;;;;;24.05;80.96;97161.38;5031514;28;20026;-78
2023/10/01 07:19:45;;;;;;;13.13;6.75;;;;;;;24.31;76.32;97168.34;5024169;28;20024;-78
2023/10/01 07:22:14;;;;;;;15.55;7.15;;;;;;;25.16;67.22;97157.56;5018832;28;20116;-78
2023/10/01 07:24:40;;;;;;;12.38;6.85;;;;;;;24.61;71.52;97162.22;5037658;28;20052;-78
2023/10/01 07:27:09;;;;;;;12.90;6.55;;;;;;;25.37;65.93;97153.53;5013453;28;20377;-78
2023/10/01 07:29:41;;;;;;;12.00;6.20;;;;;;;25.12;67.03;97153.72;5034356;28;20490;-78
2023/10/01 07:32:13;;;;;;;12.38;6.57;;;;;;;25.49;63.00;97147.38;5034596;28;20033;-79
2023/10/01 07:34:40;;;;;;;11.35;7.13;;;;;;;26.02;62.68;97160.78;5020799;28;20022;-78
2023/10/01 07:37:08;;;;;;;12.90;7.32;;;;;;;26.88;59.44;97157.47;5014808;28;20460;-78
2023/10/01 07:39:36;;;;;;;15.52;7.35;;;;;;;26.27;57.90;97155.13;5036165;28;20025;-78
2023/10/01 07:42:04;;;;;;;14.15;7.20;;;;;;;26.70;57.08;97155.78;5018886;28;20022;-78
2023/10/01 07:44:35;;;;;;;12.98;7.32;;;;;;;26.96;55.82;97157.06;5034748;28;20025;-78
2023/10/01 07:47:03;;;;;;;16.48;8.48;;;;;;;26.56;55.04;97156.06;5037912;28;20017;-78
2023/10/01 07:49:47;;;;;;;13.10;6.93;;;;;;;27.14;55.46;97154.22;5022901;28;20547;-78
2023/10/01 07:52:17;;;;;;;13.68;8.27;;;;;;;27.87;51.10;97155.19;5007664;28;20021;-78
2023/10/01 07:54:47;;;;;;;13.60;7.82;;;;;;;28.43;50.52;97166.00;5029452;28;20108;-78
2023/10/01 07:57:17;;;;;;;14.80;8.50;;;;;;;28.24;50.37;97167.34;5017109;28;20518;-78
2023/10/01 07:59:43;;;;;;;14.98;8.25;;;;;;;27.78;51.20;97158.56;5030882;28;20025;-78
2023/10/01 08:07:17;;;;;;;12.73;7.97;;;;;;;28.98;48.07;97175.06;5029359;28;20018;-78
2023/10/01 08:09:51;;;;;;;16.23;7.65;;;;;;;27.56;51.71;97185.44;5014313;28;20029;-78
2023/10/01 08:12:19;;;;;;;14.45;7.90;;;;;;;26.84;54.87;97178.72;5014774;28;20026;-79
2023/10/01 08:15:15;;;;;;;17.90;7.57;;;;;;;27.99;52.08;97182.13;5016221;28;20029;-79
2023/10/01 08:17:34;;;;;;;15.55;7.95;;;;;;;28.75;51.29;97176.97;5029556;28;20034;-79
2023/10/01 08:20:18;;;;;;;14.43;7.57;;;;;;;29.49;48.97;97178.31;5033237;28;20083;-79
2023/10/01 08:23:12;;;;;;;12.88;7.28;;;;;;;30.03;46.81;97186.38;5029997;28;20022;-78
2023/10/01 08:25:32;;;;;;;14.63;8.27;;;;;;;29.48;46.58;97182.94;5034745;28;20067;-78
2023/10/01 08:28:57;;;;;;;14.20;7.97;;;;;;;29.07;47.90;97190.63;5016127;28;20398;-78
2023/10/01 08:31:01;;;;;;;15.80;8.38;;;;;;;29.63;46.81;97178.75;5037504;28;20560;-79
2023/10/01 08:33:42;;;;;;;15.70;8.65;;;;;;;29.16;46.79;97185.59;5013699;28;20030;-79
2023/10/01 08:36:13;;;;;;;13.82;8.07;;;;;;;29.43;46.93;97184.75;5034139;28;20048;-79
2023/10/01 08:38:48;;;;;;;13.75;8.13;;;;;;;29.49;47.19;97175.59;5034845;28;20022;-79
2023/10/01 08:41:32;;;;;;;14.80;8.38;;;;;;;29.36;47.15;97179.56;5029528;28;20029;-78
2023/10/01 08:44:09;;;;;;;14.63;8.65;;;;;;;29.74;46.29;97181.25;5017881;28;20022;-79
2023/10/01 08:46:39;;;;;;;15.10;8.55;;;;;;;30.26;46.65;97180.59;5029075;28;20014;-79
2023/10/01 08:49:22;;;;;;;13.93;7.88;;;;;;;31.28;44.17;97176.66;5028654;28;20082;-79
2023/10/01 08:52:18;;;;;;;13.43;8.07;;;;;;;32.09;42.76;97184.91;5016714;28;20025;-79
2023/10/01 08:54:53;;;;;;;14.73;8.65;;;;;;;30.17;43.58;97192.97;5030534;28;20028;-79
2023/10/01 08:57:36;;;;;;;15.65;9.00;;;;;;;30.56;43.52;97187.25;5014447;28;20083;-79
2023/10/01 09:00:15;;;;;;;;;;;;;;;30.85;44.31;97189.56;5031765;28;20075;-79
2023/10/01 09:02:41;;;;;;;18.42;8.95;;;;;;;30.21;44.57;97190.59;5014483;28;19909;-78
2023/10/01 09:05:11;;;;;;;15.90;9.90;;;;;;;30.36;44.01;97173.59;5024962;28;20036;-78
2023/10/01 09:07:47;;;;;;;14.82;8.43;;;;;;;31.20;42.36;97181.53;5030216;28;20014;-79
2023/10/01 09:10:17;;;;;;;16.27;9.77;;;;;;;30.34;43.60;97183.88;5026929;28;20798;-79
2023/10/01 09:12:46;;;;;;;15.60;8.70;;;;;;;30.50;44.88;97186.41;5022445;28;20021;-79
2023/10/01 09:15:27;;;;;;;16.27;9.82;;;;;;;30.70;44.19;97182.97;5013827;28;20025;-79
2023/10/01 09:17:56;;;;;;;16.30;8.70;;;;;;;31.54;42.70;97181.06;5044665;28;20029;-79
2023/10/01 09:20:42;;;;;;;14.43;8.18;;;;;;;31.16;43.00;97185.06;5035378;28;20109;-79
2023/10/01 09:23:08;;;;;;;21.63;11.60;;;;;;;31.22;42.75;97178.53;5011759;28;20081;-79
2023/10/01 09:25:39;;;;;;;26.85;12.57;;;;;;;31.50;43.25;97173.75;5030721;28;20483;-79
2023/10/01 09:28:29;;;;;;;15.43;8.30;;;;;;;32.50;40.25;97168.50;5035526;28;20042;-80
2023/10/01 09:31:21;;;;;;;14.05;7.70;;;;;;;31.52;40.74;97177.81;5033760;28;20045;-79
2023/10/01 09:33:48;;;;;;;17.67;9.55;;;;;;;31.43;42.71;97171.28;5035205;28;20503;-80
2023/10/01 09:36:35;;;;;;;15.70;8.70;;;;;;;33.37;39.10;97168.09;5007258;28;20037;-80
2023/10/01 09:39:03;;;;;;;15.00;8.10;;;;;;;32.80;39.50;97173.03;5042068;28;20025;-79
2023/10/01 09:41:40;;;;;;;13.55;8.05;;;;;;;33.45;37.88;97164.75;5025250;28;20021;-80
2023/10/01 09:44:07;;;;;;;13.13;6.95;;;;;;;33.58;38.19;97168.00;5034815;28;20512;-79
2023/10/01 09:46:35;;;;;;;14.57;7.47;;;;;;;33.46;38.40;97163.66;5044998;28;21988;-80
2023/10/01 09:49:05;;;;;;;13.18;7.90;;;;;;;33.37;38.24;97157.19;5022226;28;20017;-79
2023/10/01 09:51:41;;;;;;;14.80;8.65;;;;;;;32.27;39.46;97155.47;5032540;28;20029;-79
2023/10/01 09:54:13;;;;;;;14.05;8.15;;;;;;;31.64;41.26;97158.53;5058238;28;20124;-80
2023/10/01 09:59:11;;;;;;;13.25;7.82;;;;;;;33.06;38.78;97157.38;5033434;28;20368;-79
2023/10/01 10:01:42;;;;;;;11.20;7.05;;;;;;;32.80;37.00;97172.22;5014324;28;20049;-79
2023/10/01 10:04:12;;;;;;;14.35;7.93;;;;;;;32.93;37.24;97162.59;5024887;28;20056;-80
2023/10/01 10:06:42;;;;;;;14.05;7.85;;;;;;;32.34;38.08;97158.72;5032323;28;20383;-79
2023/10/01 10:09:25;;;;;;;14.50;7.68;;;;;;;32.67;37.46;97151.03;5041824;28;20024;-78
2023/10/01 10:11:51;;;;;;;12.02;6.85;;;;;;;32.90;36.36;97155.81;5027173;28;20030;-79
2023/10/01 10:14:28;;;;;;;13.93;7.82;;;;;;;33.77;36.44;97141.63;5031520;28;20026;-79
2023/10/01 10:17:07;;;;;;;13.60;7.00;;;;;;;33.06;37.02;97141.03;5016161;28;20029;-79
2023/10/01 10:19:53;;;;;;;14.75;7.65;;;;;;;32.27;37.23;97150.84;5032028;28;20040;-79
2023/10/01 10:22:18;;;;;;;14.63;7.63;;;;;;;31.89;37.65;97144.09;5028013;28;20119;-79
2023/10/01 10:24:46;;;;;;;14.10;8.15;;;;;;;32.88;36.25;97144.38;5025871;28;20049;-79
2023/10/01 10:27:24;;;;;;;13.80;7.88;;;;;;;32.70;36.99;97148.56;5017529;28;20024;-79
2023/10/01 10:29:56;;;;;;;13.65;7.43;;;;;;;33.15;35.70;97141.25;5015115;28;20100;-80
2023/10/01 10:32:29;;;;;;;13.77;7.10;;;;;;;32.14;36.12;97144.06;5016865;28;20037;-79
2023/10/01 10:35:03;;;;;;;15.15;8.13;;;;;;;32.53;36.40;97143.47;5039080;28;20128;-80
2023/10/01 10:37:38;;;;;;;12.93;7.20;;;;;;;33.11;35.66;97133.94;5025632;28;20029;-79
2023/10/01 10:43:08;;;;;;;16.27;8.25;;;;;;;32.90;35.80;97142.19;5025619;28;20026;-79
2023/10/01 10:45:48;;;;;;;15.25;8.48;;;;;;;33.70;35.02;97144.69;5036627;28;20045;-80
2023/10/01 10:48:16;;;;;;;14.02;7.80;;;;;;;33.69;35.29;97139.53;5035834;28;20029;-80
2023/10/01 10:50:49;;;;;;;14.98;8.25;;;;;;;33.05;35.50;97144.84;5025524;28;20044;-80
2023/10/01 10:53:20;;;;;;;13.95;7.93;;;;;;;34.84;33.96;97136.94;5039217;28;20040;-79
2023/10/01 10:55:54;;;;;;;15.30;8.23;;;;;;;33.85;34.05;97146.47;5032210;28;20123;-80
2023/10/01 10:58:20;;;;;;;15.65;9.52;;;;;;;33.58;34.24;97135.25;5034692;28;20428;-80
2023/10/01 11:00:47;;;;;;;12.50;7.68;;;;;;;34.44;33.28;97123.50;5016143;28;20072;-80
2023/10/01 11:03:13;;;;;;;15.85;9.60;;;;;;;33.08;34.88;97130.66;5033092;28;20380;-80
2023/10/01 11:05:49;;;;;;;15.25;10.27;;;;;;;33.80;34.15;97124.69;5048705;28;20028;-80
2023/10/01 11:08:27;;;;;;;14.52;9.15;;;;;;;34.54;33.36;97128.03;5024978;28;20021;-80
2023/10/01 11:10:54;;;;;;;15.02;8.60;;;;;;;34.77;33.38;97131.03;5024089;28;20110;-80
2023/10/01 11:13:37;;;;;;;14.10;8.52;;;;;;;34.54;33.39;97124.50;5031191;28;20030;-80
2023/10/01 11:16:13;;;;;;;;;;;;;;;35.70;32.34;97117.66;5033156;28;20044;-80
2023/10/01 11:18:41;;;;;;;14.93;7.93;;;;;;;34.76;32.87;97124.75;5016706;28;19913;-80
2023/10/01 11:21:11;;;;;;;15.68;9.05;;;;;;;34.00;33.21;97131.84;5031815;28;20118;-80
2023/10/01 11:23:40;;;;;;;14.88;8.98;;;;;;;34.78;33.87;97119.03;5014708;28;20099;-80
2023/10/01 11:26:26;;;;;;;15.77;8.60;;;;;;;34.90;32.99;97124.84;5021222;28;20021;-80
2023/10/01 11:29:00;;;;;;;15.55;9.70;;;;;;;34.49;33.30;97117.16;5013682;28;20100;-80
2023/10/01 11:31:31;;;;;;;15.82;9.30;;;;;;;34.67;33.21;97118.31;5022220;28;20053;-80
2023/10/01 11:34:21;;;;;;;18.15;9.30;;;;;;;34.71;33.49;97113.91;5030339;28;20036;-79
2023/10/01 11:36:56;;;;;;;14.90;8.52;;;;;;;34.46;33.35;97113.09;5022703;28;20491;-80
2023/10/01 11:39:38;;;;;;;13.93;8.35;;;;;;;34.00;32.75;97108.16;5032893;28;20391;-80
2023/10/01 11:42:19;;;;;;;15.27;8.32;;;;;;;33.70;34.00;97105.69;5034632;28;20083;-79
2023/10/01 11:44:52;;;;;;;14.18;8.82;;;;;;;33.81;33.74;97107.22;5010752;28;21453;-79
2023/10/01 11:47:34;;;;;;;17.95;9.32;;;;;;;34.34;32.90;97099.06;5007362;28;20029;-80
2023/10/01 11:50:07;;;;;;;14.47;8.20;;;;;;;35.45;32.38;97099.72;5026269;28;20084;-79
2023/10/01 11:52:33;;;;;;;13.02;8.23;;;;;;;35.05;32.55;97099.25;5016009;28;20518;-80
2023/10/01 11:54:59;;;;;;;15.43;8.52;;;;;;;34.75;32.79;97093.09;5031742;28;20103;-80
2023/10/01 11:57:35;;;;;;;15.30;9.43;;;;;;;34.90;32.25;97090.13;5046341;28;20025;-80
2023/10/01 12:00:03;;;;;;;14.77;8.65;;;;;;;34.63;31.44;97093.50;5031798;28;20083;-80
2023/10/01 12:02:43;;;;;;;19.60;12.60;;;;;;;35.43;30.95;97078.94;5039137;28;20487;-80
2023/10/01 12:05:13;;;;;;;13.57;8.55;;;;;;;34.50;31.82;97083.25;5030341;28;20059;-79
2023/10/01 12:07:44;;;;;;;14.25;7.90;;;;;;;34.97;31.02;97076.09;5012947;28;20018;-79
2023/10/01 12:13:13;;;;;;;12.57;7.50;;;;;;;35.78;30.74;97065.81;5005835;28;20029;-80
2023/10/01 12:15:45;;;;;;;12.75;7.78;;;;;;;35.08;30.21;97068.56;5014488;28;20484;-80
2023/10/01 12:18:17;;;;;;;13.05;7.82;;;;;;;34.73;30.29;97065.25;5018125;28;20032;-80